sensor_id;sensor_type;location;lat;lon;timestamp;P1;durP1;ratioP1;P2;durP2;ratioP2
66751;SDS011;53663;42.676;23.238;2024-03-07T00:02:37;29.27;;;18.95;;
66751;SDS011;53663;42.676;23.238;2024-03-07T00:05:03;23.88;;;16.85;;
66751;SDS011;53663;42.676;23.238;2024-03-07T00:07:29;24.50;;;17.85;;
66751;SDS011;53663;42.676;23.238;2024-03-07T00:09:54;27.55;;;18.60;;
66751;SDS011;53663;42.676;23.238;2024-03-07T00:12:21;32.70;;;20.52;;
66751;SDS011;53663;42.676;23.238;2024-03-07T00:14:47;36.58;;;21.23;;
66751;SDS011;53663;42.676;23.238;2024-03-07T00:17:13;34.00;;;21.65;;
66751;SDS011;53663;42.676;23.238;2024-03-07T00:19:39;34.65;;;22.35;;
66751;SDS011;53663;42.676;23.238;2024-03-07T00:22:04;33.78;;;22.15;;
66751;SDS011;53663;42.676;23.238;2024-03-07T00:24:30;32.75;;;21.83;;
66751;SDS011;53663;42.676;23.238;2024-03-07T00:26:56;33.72;;;22.00;;
66751;SDS011;53663;42.676;23.238;2024-03-07T00:29:22;31.80;;;20.95;;
66751;SDS011;53663;42.676;23.238;2024-03-07T00:31:49;30.45;;;21.35;;
66751;SDS011;53663;42.676;23.238;2024-03-07T00:34:15;32.17;;;21.65;;
66751;SDS011;53663;42.676;23.238;2024-03-07T00:36:45;33.25;;;22.10;;
66751;SDS011;53663;42.676;23.238;2024-03-07T00:39:11;33.95;;;21.35;;
66751;SDS011;53663;42.676;23.238;2024-03-07T00:41:38;32.92;;;20.70;;
66751;SDS011;53663;42.676;23.238;2024-03-07T00:44:04;27.42;;;19.80;;
66751;SDS011;53663;42.676;23.238;2024-03-07T00:46:31;30.35;;;20.77;;
66751;SDS011;53663;42.676;23.238;2024-03-07T00:48:56;29.58;;;20.45;;
66751;SDS011;53663;42.676;23.238;2024-03-07T00:51:22;32.97;;;20.60;;
66751;SDS011;53663;42.676;23.238;2024-03-07T00:53:48;30.52;;;20.38;;
66751;SDS011;53663;42.676;23.238;2024-03-07T00:56:13;28.20;;;19.92;;
66751;SDS011;53663;42.676;23.238;2024-03-07T00:58:39;24.60;;;15.52;;
66751;SDS011;53663;42.676;23.238;2024-03-07T01:01:04;22.35;;;16.00;;
66751;SDS011;53663;42.676;23.238;2024-03-07T01:03:30;23.65;;;17.08;;
66751;SDS011;53663;42.676;23.238;2024-03-07T01:05:55;27.77;;;18.17;;
66751;SDS011;53663;42.676;23.238;2024-03-07T01:08:21;25.90;;;18.77;;
66751;SDS011;53663;42.676;23.238;2024-03-07T01:10:46;26.70;;;18.42;;
66751;SDS011;53663;42.676;23.238;2024-03-07T01:13:13;30.45;;;18.50;;
66751;SDS011;53663;42.676;23.238;2024-03-07T01:15:44;24.80;;;18.40;;
66751;SDS011;53663;42.676;23.238;2024-03-07T01:18:10;25.63;;;17.88;;
66751;SDS011;53663;42.676;23.238;2024-03-07T01:20:36;24.48;;;17.08;;
66751;SDS011;53663;42.676;23.238;2024-03-07T01:23:01;24.40;;;17.67;;
66751;SDS011;53663;42.676;23.238;2024-03-07T01:25:27;21.50;;;16.67;;
66751;SDS011;53663;42.676;23.238;2024-03-07T01:27:52;24.10;;;16.48;;
66751;SDS011;53663;42.676;23.238;2024-03-07T01:30:18;22.15;;;17.40;;
66751;SDS011;53663;42.676;23.238;2024-03-07T01:32:44;25.70;;;17.35;;
66751;SDS011;53663;42.676;23.238;2024-03-07T01:35:09;17.27;;;13.07;;
66751;SDS011;53663;42.676;23.238;2024-03-07T01:37:35;21.77;;;15.25;;
66751;SDS011;53663;42.676;23.238;2024-03-07T01:40:01;23.13;;;15.90;;
66751;SDS011;53663;42.676;23.238;2024-03-07T01:42:28;20.73;;;15.05;;
66751;SDS011;53663;42.676;23.238;2024-03-07T01:44:54;21.20;;;14.93;;
66751;SDS011;53663;42.676;23.238;2024-03-07T01:47:19;20.80;;;14.52;;
66751;SDS011;53663;42.676;23.238;2024-03-07T01:49:45;19.63;;;13.57;;
66751;SDS011;53663;42.676;23.238;2024-03-07T01:52:10;20.73;;;13.48;;
66751;SDS011;53663;42.676;23.238;2024-03-07T01:54:37;19.38;;;13.38;;
66751;SDS011;53663;42.676;23.238;2024-03-07T01:57:04;17.55;;;13.35;;
66751;SDS011;53663;42.676;23.238;2024-03-07T01:59:30;18.88;;;12.75;;
66751;SDS011;53663;42.676;23.238;2024-03-07T02:01:57;18.50;;;13.32;;
66751;SDS011;53663;42.676;23.238;2024-03-07T02:04:23;18.25;;;12.73;;
66751;SDS011;53663;42.676;23.238;2024-03-07T02:06:49;17.63;;;12.93;;
66751;SDS011;53663;42.676;23.238;2024-03-07T02:09:15;16.00;;;10.35;;
66751;SDS011;53663;42.676;23.238;2024-03-07T02:11:42;11.73;;;6.88;;
66751;SDS011;53663;42.676;23.238;2024-03-07T02:14:08;10.82;;;7.38;;
66751;SDS011;53663;42.676;23.238;2024-03-07T02:16:33;6.32;;;3.67;;
66751;SDS011;53663;42.676;23.238;2024-03-07T02:18:59;2.08;;;1.70;;
66751;SDS011;53663;42.676;23.238;2024-03-07T02:21:25;1.40;;;1.30;;
66751;SDS011;53663;42.676;23.238;2024-03-07T02:23:50;1.50;;;1.40;;
66751;SDS011;53663;42.676;23.238;2024-03-07T02:26:16;1.20;;;1.10;;
66751;SDS011;53663;42.676;23.238;2024-03-07T02:28:42;3.10;;;1.33;;
66751;SDS011;53663;42.676;23.238;2024-03-07T02:31:07;1.20;;;1.13;;
66751;SDS011;53663;42.676;23.238;2024-03-07T02:33:33;1.25;;;1.15;;
66751;SDS011;53663;42.676;23.238;2024-03-07T02:35:58;1.17;;;1.13;;
66751;SDS011;53663;42.676;23.238;2024-03-07T02:38:24;2.30;;;1.60;;
66751;SDS011;53663;42.676;23.238;2024-03-07T02:40:49;1.25;;;1.20;;
66751;SDS011;53663;42.676;23.238;2024-03-07T02:43:15;1.48;;;1.38;;
66751;SDS011;53663;42.676;23.238;2024-03-07T02:45:41;5.10;;;3.38;;
66751;SDS011;53663;42.676;23.238;2024-03-07T02:48:06;2.90;;;2.20;;
66751;SDS011;53663;42.676;23.238;2024-03-07T02:50:37;4.50;;;2.00;;
66751;SDS011;53663;42.676;23.238;2024-03-07T02:53:03;2.67;;;1.50;;
66751;SDS011;53663;42.676;23.238;2024-03-07T02:55:29;2.70;;;1.58;;
66751;SDS011;53663;42.676;23.238;2024-03-07T02:57:55;1.45;;;1.25;;
66751;SDS011;53663;42.676;23.238;2024-03-07T03:00:24;1.10;;;1.10;;
66751;SDS011;53663;42.676;23.238;2024-03-07T03:02:55;3.03;;;1.40;;
66751;SDS011;53663;42.676;23.238;2024-03-07T03:05:21;1.42;;;1.33;;
66751;SDS011;53663;42.676;23.238;2024-03-07T03:07:48;2.00;;;1.60;;
66751;SDS011;53663;42.676;23.238;2024-03-07T03:10:20;2.92;;;2.33;;
66751;SDS011;53663;42.676;23.238;2024-03-07T03:12:54;11.27;;;6.38;;
66751;SDS011;53663;42.676;23.238;2024-03-07T03:15:21;12.80;;;9.05;;
66751;SDS011;53663;42.676;23.238;2024-03-07T03:17:47;20.42;;;12.20;;
66751;SDS011;53663;42.676;23.238;2024-03-07T03:20:13;19.63;;;14.02;;
66751;SDS011;53663;42.676;23.238;2024-03-07T03:22:51;18.80;;;12.52;;
66751;SDS011;53663;42.676;23.238;2024-03-07T03:25:18;16.17;;;11.07;;
66751;SDS011;53663;42.676;23.238;2024-03-07T03:27:44;17.23;;;12.00;;
66751;SDS011;53663;42.676;23.238;2024-03-07T03:30:10;21.52;;;11.95;;
66751;SDS011;53663;42.676;23.238;2024-03-07T03:32:39;18.30;;;12.50;;
66751;SDS011;53663;42.676;23.238;2024-03-07T03:35:06;16.95;;;11.40;;
66751;SDS011;53663;42.676;23.238;2024-03-07T03:37:47;17.80;;;13.15;;
66751;SDS011;53663;42.676;23.238;2024-03-07T03:40:12;19.02;;;12.00;;
66751;SDS011;53663;42.676;23.238;2024-03-07T03:42:38;9.77;;;7.03;;
66751;SDS011;53663;42.676;23.238;2024-03-07T03:45:05;8.48;;;5.85;;
66751;SDS011;53663;42.676;23.238;2024-03-07T03:47:35;6.93;;;5.53;;
66751;SDS011;53663;42.676;23.238;2024-03-07T03:50:03;14.55;;;9.85;;
66751;SDS011;53663;42.676;23.238;2024-03-07T03:52:32;11.02;;;7.15;;
66751;SDS011;53663;42.676;23.238;2024-03-07T03:55:00;8.05;;;5.55;;
66751;SDS011;53663;42.676;23.238;2024-03-07T03:57:27;11.75;;;7.20;;
66751;SDS011;53663;42.676;23.238;2024-03-07T03:59:53;10.52;;;6.85;;
66751;SDS011;53663;42.676;23.238;2024-03-07T04:02:20;12.82;;;7.57;;
66751;SDS011;53663;42.676;23.238;2024-03-07T04:04:47;11.27;;;8.60;;
66751;SDS011;53663;42.676;23.238;2024-03-07T04:07:17;12.48;;;8.65;;
66751;SDS011;53663;42.676;23.238;2024-03-07T04:09:43;12.93;;;8.15;;
66751;SDS011;53663;42.676;23.238;2024-03-07T04:12:10;13.52;;;9.50;;
66751;SDS011;53663;42.676;23.238;2024-03-07T04:14:42;11.57;;;8.40;;
66751;SDS011;53663;42.676;23.238;2024-03-07T04:17:08;12.82;;;8.68;;
66751;SDS011;53663;42.676;23.238;2024-03-07T04:19:37;10.60;;;6.97;;
66751;SDS011;53663;42.676;23.238;2024-03-07T04:22:04;11.68;;;8.25;;
66751;SDS011;53663;42.676;23.238;2024-03-07T04:24:30;12.98;;;8.50;;
66751;SDS011;53663;42.676;23.238;2024-03-07T04:27:01;10.70;;;8.00;;
66751;SDS011;53663;42.676;23.238;2024-03-07T04:29:34;11.65;;;8.85;;
66751;SDS011;53663;42.676;23.238;2024-03-07T04:32:00;13.27;;;9.55;;
66751;SDS011;53663;42.676;23.238;2024-03-07T04:34:32;15.70;;;10.65;;
66751;SDS011;53663;42.676;23.238;2024-03-07T04:36:57;13.10;;;10.05;;
66751;SDS011;53663;42.676;23.238;2024-03-07T04:39:24;13.10;;;9.65;;
66751;SDS011;53663;42.676;23.238;2024-03-07T04:42:07;13.63;;;9.00;;
66751;SDS011;53663;42.676;23.238;2024-03-07T04:44:34;13.02;;;8.25;;
66751;SDS011;53663;42.676;23.238;2024-03-07T04:47:02;11.60;;;7.95;;
66751;SDS011;53663;42.676;23.238;2024-03-07T04:49:29;12.43;;;8.10;;
66751;SDS011;53663;42.676;23.238;2024-03-07T04:51:58;12.82;;;8.43;;
66751;SDS011;53663;42.676;23.238;2024-03-07T04:54:24;11.90;;;8.85;;
66751;SDS011;53663;42.676;23.238;2024-03-07T04:56:51;12.27;;;8.25;;
66751;SDS011;53663;42.676;23.238;2024-03-07T04:59:18;12.07;;;8.18;;
66751;SDS011;53663;42.676;23.238;2024-03-07T05:01:44;11.20;;;8.40;;
66751;SDS011;53663;42.676;23.238;2024-03-07T05:04:11;12.38;;;8.20;;
66751;SDS011;53663;42.676;23.238;2024-03-07T05:06:38;15.10;;;8.75;;
66751;SDS011;53663;42.676;23.238;2024-03-07T05:09:04;7.55;;;4.82;;
66751;SDS011;53663;42.676;23.238;2024-03-07T05:11:35;6.70;;;4.05;;
66751;SDS011;53663;42.676;23.238;2024-03-07T05:14:01;5.82;;;3.70;;
66751;SDS011;53663;42.676;23.238;2024-03-07T05:16:28;8.07;;;4.07;;
66751;SDS011;53663;42.676;23.238;2024-03-07T05:18:54;7.97;;;3.35;;
66751;SDS011;53663;42.676;23.238;2024-03-07T05:21:24;5.97;;;3.70;;
66751;SDS011;53663;42.676;23.238;2024-03-07T05:24:05;6.68;;;3.90;;
66751;SDS011;53663;42.676;23.238;2024-03-07T05:26:33;4.82;;;3.03;;
66751;SDS011;53663;42.676;23.238;2024-03-07T05:29:03;2.85;;;2.33;;
66751;SDS011;53663;42.676;23.238;2024-03-07T05:31:35;2.20;;;1.83;;
66751;SDS011;53663;42.676;23.238;2024-03-07T05:34:12;5.78;;;2.88;;
66751;SDS011;53663;42.676;23.238;2024-03-07T05:36:38;3.90;;;2.30;;
66751;SDS011;53663;42.676;23.238;2024-03-07T05:39:14;3.58;;;2.28;;
66751;SDS011;53663;42.676;23.238;2024-03-07T05:41:42;2.95;;;1.90;;
66751;SDS011;53663;42.676;23.238;2024-03-07T05:44:10;3.17;;;1.90;;
66751;SDS011;53663;42.676;23.238;2024-03-07T05:46:36;3.03;;;2.35;;
66751;SDS011;53663;42.676;23.238;2024-03-07T05:49:06;3.08;;;2.10;;
66751;SDS011;53663;42.676;23.238;2024-03-07T05:51:32;4.40;;;2.30;;
66751;SDS011;53663;42.676;23.238;2024-03-07T05:53:58;2.65;;;2.05;;
66751;SDS011;53663;42.676;23.238;2024-03-07T05:56:23;5.35;;;2.10;;
66751;SDS011;53663;42.676;23.238;2024-03-07T05:58:49;2.72;;;2.13;;
66751;SDS011;53663;42.676;23.238;2024-03-07T06:01:16;2.33;;;2.10;;
66751;SDS011;53663;42.676;23.238;2024-03-07T06:03:43;5.82;;;2.40;;
66751;SDS011;53663;42.676;23.238;2024-03-07T06:06:10;3.95;;;2.80;;
66751;SDS011;53663;42.676;23.238;2024-03-07T06:08:36;3.35;;;2.55;;
66751;SDS011;53663;42.676;23.238;2024-03-07T06:11:03;3.00;;;2.10;;
66751;SDS011;53663;42.676;23.238;2024-03-07T06:13:29;6.15;;;2.60;;
66751;SDS011;53663;42.676;23.238;2024-03-07T06:15:54;2.58;;;2.15;;
66751;SDS011;53663;42.676;23.238;2024-03-07T06:18:20;3.10;;;2.47;;
66751;SDS011;53663;42.676;23.238;2024-03-07T06:20:45;3.03;;;2.40;;
66751;SDS011;53663;42.676;23.238;2024-03-07T06:23:11;2.15;;;1.92;;
66751;SDS011;53663;42.676;23.238;2024-03-07T06:25:41;2.63;;;2.17;;
66751;SDS011;53663;42.676;23.238;2024-03-07T06:28:17;4.53;;;2.60;;
66751;SDS011;53663;42.676;23.238;2024-03-07T06:30:44;3.00;;;2.38;;
66751;SDS011;53663;42.676;23.238;2024-03-07T06:33:10;4.30;;;2.53;;
66751;SDS011;53663;42.676;23.238;2024-03-07T06:35:36;4.93;;;2.90;;
66751;SDS011;53663;42.676;23.238;2024-03-07T06:38:06;3.95;;;2.92;;
66751;SDS011;53663;42.676;23.238;2024-03-07T06:40:33;4.90;;;3.17;;
66751;SDS011;53663;42.676;23.238;2024-03-07T06:42:59;5.22;;;3.38;;
66751;SDS011;53663;42.676;23.238;2024-03-07T06:45:25;6.05;;;3.78;;
66751;SDS011;53663;42.676;23.238;2024-03-07T06:47:51;6.75;;;3.42;;
66751;SDS011;53663;42.676;23.238;2024-03-07T06:50:19;6.70;;;3.63;;
66751;SDS011;53663;42.676;23.238;2024-03-07T06:52:45;8.30;;;5.22;;
66751;SDS011;53663;42.676;23.238;2024-03-07T06:55:17;7.55;;;3.80;;
66751;SDS011;53663;42.676;23.238;2024-03-07T06:57:47;6.88;;;3.90;;
66751;SDS011;53663;42.676;23.238;2024-03-07T07:00:13;6.28;;;3.85;;
66751;SDS011;53663;42.676;23.238;2024-03-07T07:02:45;6.32;;;3.50;;
66751;SDS011;53663;42.676;23.238;2024-03-07T07:05:11;10.85;;;3.58;;
66751;SDS011;53663;42.676;23.238;2024-03-07T07:07:40;9.35;;;5.07;;
66751;SDS011;53663;42.676;23.238;2024-03-07T07:10:07;13.85;;;5.72;;
66751;SDS011;53663;42.676;23.238;2024-03-07T07:12:41;10.48;;;6.28;;
66751;SDS011;53663;42.676;23.238;2024-03-07T07:15:11;12.02;;;8.13;;
66751;SDS011;53663;42.676;23.238;2024-03-07T07:17:38;11.65;;;7.90;;
66751;SDS011;53663;42.676;23.238;2024-03-07T07:20:04;9.95;;;6.85;;
66751;SDS011;53663;42.676;23.238;2024-03-07T07:22:36;10.52;;;8.32;;
66751;SDS011;53663;42.676;23.238;2024-03-07T07:25:02;7.65;;;5.53;;
66751;SDS011;53663;42.676;23.238;2024-03-07T07:27:30;3.70;;;2.90;;
66751;SDS011;53663;42.676;23.238;2024-03-07T07:29:58;6.10;;;3.00;;
66751;SDS011;53663;42.676;23.238;2024-03-07T07:32:24;6.25;;;3.28;;
66751;SDS011;53663;42.676;23.238;2024-03-07T07:34:50;4.82;;;3.20;;
66751;SDS011;53663;42.676;23.238;2024-03-07T07:37:15;5.47;;;3.13;;
66751;SDS011;53663;42.676;23.238;2024-03-07T07:39:41;6.18;;;3.65;;
66751;SDS011;53663;42.676;23.238;2024-03-07T07:42:07;5.00;;;3.38;;
66751;SDS011;53663;42.676;23.238;2024-03-07T07:44:34;5.30;;;3.97;;
66751;SDS011;53663;42.676;23.238;2024-03-07T07:47:00;4.78;;;3.38;;
66751;SDS011;53663;42.676;23.238;2024-03-07T07:49:26;5.82;;;3.63;;
66751;SDS011;53663;42.676;23.238;2024-03-07T07:51:52;5.57;;;3.20;;
66751;SDS011;53663;42.676;23.238;2024-03-07T07:54:19;4.43;;;3.47;;
66751;SDS011;53663;42.676;23.238;2024-03-07T07:56:46;7.53;;;4.85;;
66751;SDS011;53663;42.676;23.238;2024-03-07T07:59:13;6.88;;;4.65;;
66751;SDS011;53663;42.676;23.238;2024-03-07T08:01:38;8.35;;;5.00;;
66751;SDS011;53663;42.676;23.238;2024-03-07T08:04:04;6.55;;;3.65;;
66751;SDS011;53663;42.676;23.238;2024-03-07T08:06:30;8.07;;;4.05;;
66751;SDS011;53663;42.676;23.238;2024-03-07T08:08:56;8.63;;;4.10;;
66751;SDS011;53663;42.676;23.238;2024-03-07T08:11:21;5.97;;;3.75;;
66751;SDS011;53663;42.676;23.238;2024-03-07T08:13:47;7.05;;;4.28;;
66751;SDS011;53663;42.676;23.238;2024-03-07T08:16:15;5.53;;;4.18;;
66751;SDS011;53663;42.676;23.238;2024-03-07T08:18:41;11.00;;;6.45;;
66751;SDS011;53663;42.676;23.238;2024-03-07T08:21:06;11.13;;;6.32;;
66751;SDS011;53663;42.676;23.238;2024-03-07T08:23:36;6.35;;;4.40;;
66751;SDS011;53663;42.676;23.238;2024-03-07T08:26:02;10.32;;;3.97;;
66751;SDS011;53663;42.676;23.238;2024-03-07T08:28:28;6.75;;;4.65;;
66751;SDS011;53663;42.676;23.238;2024-03-07T08:30:53;12.50;;;5.45;;
66751;SDS011;53663;42.676;23.238;2024-03-07T08:33:19;49.42;;;20.73;;
66751;SDS011;53663;42.676;23.238;2024-03-07T08:35:49;16.08;;;7.57;;
66751;SDS011;53663;42.676;23.238;2024-03-07T08:38:18;35.72;;;17.33;;
66751;SDS011;53663;42.676;23.238;2024-03-07T08:40:43;15.63;;;8.50;;
66751;SDS011;53663;42.676;23.238;2024-03-07T08:43:09;14.98;;;10.13;;
66751;SDS011;53663;42.676;23.238;2024-03-07T08:45:35;10.68;;;6.40;;
66751;SDS011;53663;42.676;23.238;2024-03-07T08:48:01;8.15;;;5.18;;
66751;SDS011;53663;42.676;23.238;2024-03-07T08:50:29;17.70;;;8.43;;
66751;SDS011;53663;42.676;23.238;2024-03-07T08:52:55;17.48;;;8.93;;
66751;SDS011;53663;42.676;23.238;2024-03-07T08:55:24;10.60;;;5.50;;
66751;SDS011;53663;42.676;23.238;2024-03-07T08:57:50;11.38;;;7.15;;
66751;SDS011;53663;42.676;23.238;2024-03-07T09:00:16;14.40;;;7.30;;
66751;SDS011;53663;42.676;23.238;2024-03-07T09:02:49;9.82;;;6.07;;
66751;SDS011;53663;42.676;23.238;2024-03-07T09:05:19;10.70;;;6.53;;
66751;SDS011;53663;42.676;23.238;2024-03-07T09:07:47;10.98;;;6.72;;
66751;SDS011;53663;42.676;23.238;2024-03-07T09:10:13;12.57;;;6.32;;
66751;SDS011;53663;42.676;23.238;2024-03-07T09:12:46;13.38;;;7.13;;
66751;SDS011;53663;42.676;23.238;2024-03-07T09:15:15;9.30;;;5.55;;
66751;SDS011;53663;42.676;23.238;2024-03-07T09:17:42;14.18;;;7.70;;
66751;SDS011;53663;42.676;23.238;2024-03-07T09:20:07;12.38;;;7.70;;
66751;SDS011;53663;42.676;23.238;2024-03-07T09:22:40;11.02;;;6.57;;
66751;SDS011;53663;42.676;23.238;2024-03-07T09:25:06;10.95;;;6.90;;
66751;SDS011;53663;42.676;23.238;2024-03-07T09:27:33;10.27;;;6.80;;
66751;SDS011;53663;42.676;23.238;2024-03-07T09:29:58;11.45;;;6.60;;
66751;SDS011;53663;42.676;23.238;2024-03-07T09:32:24;9.25;;;6.03;;
66751;SDS011;53663;42.676;23.238;2024-03-07T09:34:49;6.82;;;5.03;;
66751;SDS011;53663;42.676;23.238;2024-03-07T09:37:15;10.63;;;6.03;;
66751;SDS011;53663;42.676;23.238;2024-03-07T09:39:40;9.27;;;5.60;;
66751;SDS011;53663;42.676;23.238;2024-03-07T09:42:09;8.00;;;4.75;;
66751;SDS011;53663;42.676;23.238;2024-03-07T09:44:40;8.40;;;5.10;;
66751;SDS011;53663;42.676;23.238;2024-03-07T09:47:07;9.25;;;5.90;;
66751;SDS011;53663;42.676;23.238;2024-03-07T09:49:33;9.68;;;5.82;;
66751;SDS011;53663;42.676;23.238;2024-03-07T09:52:00;8.00;;;5.68;;
66751;SDS011;53663;42.676;23.238;2024-03-07T09:54:34;13.63;;;8.00;;
66751;SDS011;53663;42.676;23.238;2024-03-07T09:57:00;9.10;;;6.22;;
66751;SDS011;53663;42.676;23.238;2024-03-07T09:59:28;12.02;;;6.05;;
66751;SDS011;53663;42.676;23.238;2024-03-07T10:01:57;7.78;;;5.07;;
66751;SDS011;53663;42.676;23.238;2024-03-07T10:04:36;12.32;;;4.68;;
66751;SDS011;53663;42.676;23.238;2024-03-07T10:07:08;11.07;;;5.82;;
66751;SDS011;53663;42.676;23.238;2024-03-07T10:09:37;5.78;;;3.95;;
66751;SDS011;53663;42.676;23.238;2024-03-07T10:12:05;13.38;;;4.47;;
66751;SDS011;53663;42.676;23.238;2024-03-07T10:14:35;5.57;;;4.07;;
66751;SDS011;53663;42.676;23.238;2024-03-07T10:17:02;7.05;;;4.47;;
66751;SDS011;53663;42.676;23.238;2024-03-07T10:19:28;7.18;;;4.00;;
66751;SDS011;53663;42.676;23.238;2024-03-07T10:21:54;10.25;;;5.13;;
66751;SDS011;53663;42.676;23.238;2024-03-07T10:24:24;8.73;;;5.30;;
66751;SDS011;53663;42.676;23.238;2024-03-07T10:26:50;10.38;;;5.50;;
66751;SDS011;53663;42.676;23.238;2024-03-07T10:29:17;6.13;;;4.43;;
66751;SDS011;53663;42.676;23.238;2024-03-07T10:31:43;8.23;;;4.88;;
66751;SDS011;53663;42.676;23.238;2024-03-07T10:34:10;7.47;;;4.63;;
66751;SDS011;53663;42.676;23.238;2024-03-07T10:36:37;6.45;;;4.50;;
66751;SDS011;53663;42.676;23.238;2024-03-07T10:39:02;8.35;;;4.55;;
66751;SDS011;53663;42.676;23.238;2024-03-07T10:41:39;7.95;;;4.20;;
66751;SDS011;53663;42.676;23.238;2024-03-07T10:44:07;9.20;;;4.45;;
66751;SDS011;53663;42.676;23.238;2024-03-07T10:46:38;15.38;;;4.45;;
66751;SDS011;53663;42.676;23.238;2024-03-07T10:49:04;13.93;;;5.10;;
66751;SDS011;53663;42.676;23.238;2024-03-07T10:51:40;8.35;;;4.40;;
66751;SDS011;53663;42.676;23.238;2024-03-07T10:54:13;9.50;;;4.70;;
66751;SDS011;53663;42.676;23.238;2024-03-07T10:59:49;9.75;;;5.22;;
66751;SDS011;53663;42.676;23.238;2024-03-07T11:02:20;9.77;;;5.82;;
66751;SDS011;53663;42.676;23.238;2024-03-07T11:04:54;15.02;;;6.22;;
66751;SDS011;53663;42.676;23.238;2024-03-07T11:07:21;19.38;;;8.27;;
66751;SDS011;53663;42.676;23.238;2024-03-07T11:09:51;9.23;;;5.88;;
66751;SDS011;53663;42.676;23.238;2024-03-07T11:12:21;7.60;;;5.07;;
66751;SDS011;53663;42.676;23.238;2024-03-07T11:14:49;10.70;;;6.05;;
66751;SDS011;53663;42.676;23.238;2024-03-07T11:17:17;7.95;;;5.20;;
66751;SDS011;53663;42.676;23.238;2024-03-07T11:19:44;7.00;;;4.82;;
66751;SDS011;53663;42.676;23.238;2024-03-07T11:22:27;7.97;;;4.75;;
66751;SDS011;53663;42.676;23.238;2024-03-07T11:25:04;8.95;;;4.88;;
66751;SDS011;53663;42.676;23.238;2024-03-07T11:27:36;6.88;;;4.82;;
66751;SDS011;53663;42.676;23.238;2024-03-07T11:30:07;5.80;;;3.90;;
66751;SDS011;53663;42.676;23.238;2024-03-07T11:32:37;8.05;;;4.65;;
66751;SDS011;53663;42.676;23.238;2024-03-07T11:35:12;12.02;;;4.80;;
66751;SDS011;53663;42.676;23.238;2024-03-07T11:37:39;14.88;;;4.70;;
66751;SDS011;53663;42.676;23.238;2024-03-07T11:40:13;6.65;;;4.25;;
66751;SDS011;53663;42.676;23.238;2024-03-07T11:43:00;7.80;;;4.75;;
66751;SDS011;53663;42.676;23.238;2024-03-07T11:45:29;8.43;;;4.30;;
66751;SDS011;53663;42.676;23.238;2024-03-07T11:47:59;6.90;;;5.00;;
66751;SDS011;53663;42.676;23.238;2024-03-07T11:50:26;7.85;;;5.25;;
66751;SDS011;53663;42.676;23.238;2024-03-07T11:52:55;13.13;;;4.93;;
66751;SDS011;53663;42.676;23.238;2024-03-07T11:55:22;11.70;;;6.90;;
66751;SDS011;53663;42.676;23.238;2024-03-07T11:57:48;7.78;;;4.82;;
66751;SDS011;53663;42.676;23.238;2024-03-07T12:00:16;5.22;;;3.72;;
66751;SDS011;53663;42.676;23.238;2024-03-07T12:02:43;7.25;;;4.82;;
66751;SDS011;53663;42.676;23.238;2024-03-07T12:05:09;11.70;;;4.20;;
66751;SDS011;53663;42.676;23.238;2024-03-07T12:07:35;8.18;;;4.25;;
66751;SDS011;53663;42.676;23.238;2024-03-07T12:10:02;8.02;;;4.93;;
66751;SDS011;53663;42.676;23.238;2024-03-07T12:12:31;6.87;;;4.33;;
66751;SDS011;53663;42.676;23.238;2024-03-07T12:14:58;6.80;;;4.03;;
66751;SDS011;53663;42.676;23.238;2024-03-07T12:17:24;6.25;;;3.97;;
66751;SDS011;53663;42.676;23.238;2024-03-07T12:19:50;6.10;;;3.78;;
66751;SDS011;53663;42.676;23.238;2024-03-07T12:22:19;5.28;;;3.60;;
66751;SDS011;53663;42.676;23.238;2024-03-07T12:24:59;5.30;;;3.70;;
66751;SDS011;53663;42.676;23.238;2024-03-07T12:27:29;4.88;;;3.53;;
66751;SDS011;53663;42.676;23.238;2024-03-07T12:29:55;7.30;;;3.92;;
66751;SDS011;53663;42.676;23.238;2024-03-07T12:32:20;10.48;;;3.83;;
66751;SDS011;53663;42.676;23.238;2024-03-07T12:34:46;9.07;;;4.10;;
66751;SDS011;53663;42.676;23.238;2024-03-07T12:37:12;8.57;;;4.35;;
66751;SDS011;53663;42.676;23.238;2024-03-07T12:39:44;7.40;;;4.50;;
66751;SDS011;53663;42.676;23.238;2024-03-07T12:42:24;8.63;;;4.18;;
66751;SDS011;53663;42.676;23.238;2024-03-07T12:44:49;5.82;;;3.65;;
66751;SDS011;53663;42.676;23.238;2024-03-07T12:47:15;5.07;;;3.80;;
66751;SDS011;53663;42.676;23.238;2024-03-07T12:49:45;7.63;;;3.75;;
66751;SDS011;53663;42.676;23.238;2024-03-07T12:52:11;8.65;;;3.85;;
66751;SDS011;53663;42.676;23.238;2024-03-07T12:54:41;7.70;;;4.00;;
66751;SDS011;53663;42.676;23.238;2024-03-07T12:57:07;7.70;;;4.00;;
66751;SDS011;53663;42.676;23.238;2024-03-07T12:59:42;6.32;;;3.65;;
66751;SDS011;53663;42.676;23.238;2024-03-07T13:02:09;8.55;;;4.50;;
66751;SDS011;53663;42.676;23.238;2024-03-07T13:04:41;7.97;;;4.95;;
66751;SDS011;53663;42.676;23.238;2024-03-07T13:07:08;12.63;;;6.90;;
66751;SDS011;53663;42.676;23.238;2024-03-07T13:09:33;11.50;;;4.63;;
66751;SDS011;53663;42.676;23.238;2024-03-07T13:11:59;9.30;;;4.45;;
66751;SDS011;53663;42.676;23.238;2024-03-07T13:14:26;8.85;;;3.38;;
66751;SDS011;53663;42.676;23.238;2024-03-07T13:16:58;6.60;;;2.90;;
66751;SDS011;53663;42.676;23.238;2024-03-07T13:19:28;1.70;;;1.60;;
66751;SDS011;53663;42.676;23.238;2024-03-07T13:21:56;1.55;;;1.17;;
66751;SDS011;53663;42.676;23.238;2024-03-07T13:24:22;4.30;;;1.30;;
66751;SDS011;53663;42.676;23.238;2024-03-07T13:26:49;2.33;;;1.60;;
66751;SDS011;53663;42.676;23.238;2024-03-07T13:29:15;9.25;;;2.45;;
66751;SDS011;53663;42.676;23.238;2024-03-07T13:31:44;5.57;;;2.30;;
66751;SDS011;53663;42.676;23.238;2024-03-07T13:34:10;3.75;;;2.35;;
66751;SDS011;53663;42.676;23.238;2024-03-07T13:36:41;4.35;;;1.83;;
66751;SDS011;53663;42.676;23.238;2024-03-07T13:39:08;9.07;;;3.70;;
66751;SDS011;53663;42.676;23.238;2024-03-07T13:41:36;4.97;;;3.00;;
66751;SDS011;53663;42.676;23.238;2024-03-07T13:44:08;3.88;;;2.30;;
66751;SDS011;53663;42.676;23.238;2024-03-07T13:46:33;5.60;;;2.50;;
66751;SDS011;53663;42.676;23.238;2024-03-07T13:49:02;5.45;;;2.88;;
66751;SDS011;53663;42.676;23.238;2024-03-07T13:51:40;9.27;;;3.40;;
66751;SDS011;53663;42.676;23.238;2024-03-07T13:54:30;8.68;;;3.38;;
66751;SDS011;53663;42.676;23.238;2024-03-07T13:59:56;6.25;;;3.15;;
66751;SDS011;53663;42.676;23.238;2024-03-07T14:30:54;6.97;;;4.05;;
66751;SDS011;53663;42.676;23.238;2024-03-07T14:33:29;6.15;;;3.42;;
66751;SDS011;53663;42.676;23.238;2024-03-07T14:38:40;5.80;;;3.80;;
66751;SDS011;53663;42.676;23.238;2024-03-07T14:41:14;6.95;;;4.82;;
66751;SDS011;53663;42.676;23.238;2024-03-07T14:43:41;8.38;;;5.10;;
66751;SDS011;53663;42.676;23.238;2024-03-07T14:46:11;11.10;;;5.47;;
66751;SDS011;53663;42.676;23.238;2024-03-07T14:48:39;10.07;;;5.40;;
66751;SDS011;53663;42.676;23.238;2024-03-07T14:51:09;11.02;;;5.70;;
66751;SDS011;53663;42.676;23.238;2024-03-07T14:53:39;10.70;;;6.20;;
66751;SDS011;53663;42.676;23.238;2024-03-07T14:56:06;13.05;;;6.82;;
66751;SDS011;53663;42.676;23.238;2024-03-07T14:58:33;12.18;;;6.70;;
66751;SDS011;53663;42.676;23.238;2024-03-07T15:00:58;12.70;;;6.40;;
66751;SDS011;53663;42.676;23.238;2024-03-07T15:03:24;15.27;;;8.13;;
66751;SDS011;53663;42.676;23.238;2024-03-07T15:05:53;13.55;;;7.70;;
66751;SDS011;53663;42.676;23.238;2024-03-07T15:08:19;15.10;;;7.82;;